Blue Galaxy — SWDA — position and weather

sailwx.info

Track history (hours):
 
Tides and Currents Weather Stations Pressure Air Temp Water Temp Dewpoint Dewpoint Depression Visibility Wind Speed Wind Dir Waves Ship Positions

Blue Galaxy

Last reported at 2017-Feb-24 12:33 UTC. Time now 2017-Feb-24 12:35 UTC.
Position N 37°56' E 023°38'.

Length 192 m; draft 6.7 m.

Type: Passenger vessel. MMSI: 239672000.

Date/timePositionNaut miles runAvg speedWind from/ knotsBaromVisibWave heightAir tempDewpointWater temp
2017-Feb-24 12:33N 37°56' E 023°38'0 0.0
2017-Feb-24 11:33N 37°56' E 023°38'0 0.0
2017-Feb-24 10:33N 37°56' E 023°38'0 0.0
2017-Feb-24 09:30N 37°56' E 023°38'0 0.0
2017-Feb-24 08:30N 37°56' E 023°38'0 0.0
2017-Feb-24 07:33N 37°56' E 023°38'0 0.0
2017-Feb-24 06:33N 37°56' E 023°38'0 0.0
2017-Feb-24 05:33N 37°56' E 023°38'0 0.0
2017-Feb-24 04:32N 37°56' E 023°38'0 0.1
2017-Feb-24 03:34N 37°56' E 023°38'1716.7
2017-Feb-24 02:33N 37°41' E 023°45'4 0.1
2017-Feb-22 20:31N 37°37' E 023°43'1819.0
2017-Feb-22 19:34N 37°55' E 023°37'2 1.6
2017-Feb-22 18:34N 37°56' E 023°38'0 0.0
2017-Feb-22 17:33N 37°56' E 023°38'0 0.0
2017-Feb-22 16:33N 37°56' E 023°38'0 0.0
2017-Feb-22 15:34N 37°56' E 023°38'0 0.0
2017-Feb-22 14:33N 37°56' E 023°38'0 0.0
2017-Feb-22 13:33N 37°56' E 023°38'0 0.0
2017-Feb-22 12:33N 37°56' E 023°38'0 0.0
2017-Feb-22 11:33N 37°56' E 023°38'0 0.0
2017-Feb-22 10:33N 37°56' E 023°38'0 0.0
2017-Feb-22 09:33N 37°56' E 023°38'0 0.0
2017-Feb-22 08:33N 37°56' E 023°38'0 0.0
2017-Feb-22 07:33N 37°56' E 023°38'0 0.0
2017-Feb-22 06:33N 37°56' E 023°38'0 0.0
2017-Feb-22 05:33N 37°56' E 023°38'0 0.0
2017-Feb-22 04:33N 37°56' E 023°38'0 0.1
2017-Feb-22 03:34N 37°56' E 023°38'1716.8
2017-Feb-22 02:33N 37°41' E 023°46'6 0.2
2017-Feb-20 20:33N 37°36' E 023°43'1919.2
2017-Feb-20 19:33N 37°54' E 023°37'3 2.7
2017-Feb-20 18:33N 37°56' E 023°38'0 0.0
2017-Feb-20 17:33N 37°56' E 023°38'0 0.0
2017-Feb-20 16:33N 37°56' E 023°38'0 0.0
2017-Feb-20 15:33N 37°56' E 023°38'0 0.0
2017-Feb-20 14:33N 37°56' E 023°38'0 0.0
2017-Feb-20 13:33N 37°56' E 023°38'0 0.0
2017-Feb-20 12:33N 37°56' E 023°38'0 0.0
2017-Feb-20 11:33N 37°56' E 023°38'0 0.0
2017-Feb-20 10:33N 37°56' E 023°38'0 0.0
2017-Feb-20 09:33N 37°56' E 023°38'0 0.0
2017-Feb-20 08:33N 37°56' E 023°38'0 0.0
2017-Feb-20 07:33N 37°56' E 023°38'0 0.0
2017-Feb-20 06:33N 37°56' E 023°38'0 0.0
2017-Feb-20 05:33N 37°56' E 023°38'0 0.0
2017-Feb-20 04:33N 37°56' E 023°38'0 0.0
2017-Feb-20 03:33N 37°56' E 023°38'1514.9
2017-Feb-20 02:33N 37°43' E 023°45'4 0.1
2017-Feb-18 20:33N 37°39' E 023°43'1818.1
2017-Feb-18 19:33N 37°56' E 023°37'1 0.6
2017-Feb-18 18:32N 37°56' E 023°38'0 0.0
2017-Feb-18 17:32N 37°56' E 023°38'0 0.0
2017-Feb-18 16:33N 37°56' E 023°38'0 0.0
2017-Feb-18 15:29N 37°56' E 023°38'0 0.0
2017-Feb-18 14:32N 37°56' E 023°38'0 0.0
2017-Feb-18 13:32N 37°56' E 023°38'0 0.0
2017-Feb-18 12:32N 37°56' E 023°38'0 0.0
2017-Feb-18 11:32N 37°56' E 023°38'0 0.0
2017-Feb-18 10:32N 37°56' E 023°38'0 0.0
2017-Feb-18 09:32N 37°56' E 023°38'0 0.0
2017-Feb-18 08:32N 37°56' E 023°38'0 0.0
2017-Feb-18 07:32N 37°56' E 023°38'0 0.0
2017-Feb-18 06:32N 37°56' E 023°38'0 0.0
2017-Feb-18 05:32N 37°56' E 023°38'0 0.0
2017-Feb-18 04:32N 37°56' E 023°38'0 0.1
2017-Feb-18 03:33N 37°56' E 023°38'1515.1
2017-Feb-18 02:34N 37°43' E 023°45'6 0.2
2017-Feb-16 20:28N 37°37' E 023°43'1719.1
2017-Feb-16 19:33N 37°54' E 023°37'3 2.9
2017-Feb-16 18:33N 37°56' E 023°38'0 0.0
2017-Feb-16 17:33N 37°56' E 023°38'0 0.0
2017-Feb-16 16:32N 37°56' E 023°38'0 0.0
2017-Feb-16 15:33N 37°56' E 023°38'0 0.0
2017-Feb-16 14:32N 37°56' E 023°38'0 0.0
2017-Feb-16 13:33N 37°56' E 023°38'0 0.0
2017-Feb-16 12:33N 37°56' E 023°38'0 0.0
2017-Feb-16 11:33N 37°56' E 023°38'0 0.0
2017-Feb-16 10:33N 37°56' E 023°38'0 0.0
2017-Feb-16 09:33N 37°56' E 023°38'0 0.0
2017-Feb-16 08:33N 37°56' E 023°38'0 0.0
2017-Feb-16 07:33N 37°56' E 023°38'0 0.0
2017-Feb-16 06:33N 37°56' E 023°38'0 0.0
2017-Feb-16 05:33N 37°56' E 023°38'0 0.0
2017-Feb-16 04:33N 37°56' E 023°38'0 0.2
2017-Feb-16 03:34N 37°56' E 023°37'1817.8
2017-Feb-16 02:34N 37°40' E 023°46'4 0.1
2017-Feb-14 20:27N 37°37' E 023°43'1719.3
2017-Feb-14 19:34N 37°53' E 023°36'3 3.1
2017-Feb-14 18:34N 37°56' E 023°38'0 0.0
2017-Feb-14 17:31N 37°56' E 023°38'0 0.0
2017-Feb-14 16:32N 37°56' E 023°38'0 0.0
2017-Feb-14 15:33N 37°56' E 023°38'0 0.0
2017-Feb-14 14:32N 37°56' E 023°38'0 0.0
2017-Feb-14 13:32N 37°56' E 023°38'  
Track history (hours):
 
Tides and Currents Weather Stations Pressure Air Temp Water Temp Dewpoint Dewpoint Depression Visibility Wind Speed Wind Dir Waves Ship Positions

Blue Galaxy

Last reported at 2017-Feb-24 12:33 UTC. Time now 2017-Feb-24 12:35 UTC.
Position N 37°56' E 023°38'.

Length 192 m; draft 6.7 m.

Type: Passenger vessel. MMSI: 239672000.

Date/timePositionNaut miles runAvg speedWind from/ knotsBaromVisibWave heightAir tempDewpointWater temp
2017-Feb-24 12:33N 37°56' E 023°38'0 0.0
2017-Feb-24 11:33N 37°56' E 023°38'0 0.0
2017-Feb-24 10:33N 37°56' E 023°38'0 0.0
2017-Feb-24 09:30N 37°56' E 023°38'0 0.0
2017-Feb-24 08:30N 37°56' E 023°38'0 0.0
2017-Feb-24 07:33N 37°56' E 023°38'0 0.0
2017-Feb-24 06:33N 37°56' E 023°38'0 0.0
2017-Feb-24 05:33N 37°56' E 023°38'0 0.0
2017-Feb-24 04:32N 37°56' E 023°38'0 0.1
2017-Feb-24 03:34N 37°56' E 023°38'1716.7
2017-Feb-24 02:33N 37°41' E 023°45'4 0.1
2017-Feb-22 20:31N 37°37' E 023°43'1819.0
2017-Feb-22 19:34N 37°55' E 023°37'2 1.6
2017-Feb-22 18:34N 37°56' E 023°38'0 0.0
2017-Feb-22 17:33N 37°56' E 023°38'0 0.0
2017-Feb-22 16:33N 37°56' E 023°38'0 0.0
2017-Feb-22 15:34N 37°56' E 023°38'0 0.0
2017-Feb-22 14:33N 37°56' E 023°38'0 0.0
2017-Feb-22 13:33N 37°56' E 023°38'0 0.0
2017-Feb-22 12:33N 37°56' E 023°38'0 0.0
2017-Feb-22 11:33N 37°56' E 023°38'0 0.0
2017-Feb-22 10:33N 37°56' E 023°38'0 0.0
2017-Feb-22 09:33N 37°56' E 023°38'0 0.0
2017-Feb-22 08:33N 37°56' E 023°38'0 0.0
2017-Feb-22 07:33N 37°56' E 023°38'0 0.0
2017-Feb-22 06:33N 37°56' E 023°38'0 0.0
2017-Feb-22 05:33N 37°56' E 023°38'0 0.0
2017-Feb-22 04:33N 37°56' E 023°38'0 0.1
2017-Feb-22 03:34N 37°56' E 023°38'1716.8
2017-Feb-22 02:33N 37°41' E 023°46'6 0.2
2017-Feb-20 20:33N 37°36' E 023°43'1919.2
2017-Feb-20 19:33N 37°54' E 023°37'3 2.7
2017-Feb-20 18:33N 37°56' E 023°38'0 0.0
2017-Feb-20 17:33N 37°56' E 023°38'0 0.0
2017-Feb-20 16:33N 37°56' E 023°38'0 0.0
2017-Feb-20 15:33N 37°56' E 023°38'0 0.0
2017-Feb-20 14:33N 37°56' E 023°38'0 0.0
2017-Feb-20 13:33N 37°56' E 023°38'0 0.0
2017-Feb-20 12:33N 37°56' E 023°38'0 0.0
2017-Feb-20 11:33N 37°56' E 023°38'0 0.0
2017-Feb-20 10:33N 37°56' E 023°38'0 0.0
2017-Feb-20 09:33N 37°56' E 023°38'0 0.0
2017-Feb-20 08:33N 37°56' E 023°38'0 0.0
2017-Feb-20 07:33N 37°56' E 023°38'0 0.0
2017-Feb-20 06:33N 37°56' E 023°38'0 0.0
2017-Feb-20 05:33N 37°56' E 023°38'0 0.0
2017-Feb-20 04:33N 37°56' E 023°38'0 0.0
2017-Feb-20 03:33N 37°56' E 023°38'1514.9
2017-Feb-20 02:33N 37°43' E 023°45'4 0.1
2017-Feb-18 20:33N 37°39' E 023°43'1818.1
2017-Feb-18 19:33N 37°56' E 023°37'1 0.6
2017-Feb-18 18:32N 37°56' E 023°38'0 0.0
2017-Feb-18 17:32N 37°56' E 023°38'0 0.0
2017-Feb-18 16:33N 37°56' E 023°38'0 0.0
2017-Feb-18 15:29N 37°56' E 023°38'0 0.0
2017-Feb-18 14:32N 37°56' E 023°38'0 0.0
2017-Feb-18 13:32N 37°56' E 023°38'0 0.0
2017-Feb-18 12:32N 37°56' E 023°38'0 0.0
2017-Feb-18 11:32N 37°56' E 023°38'0 0.0
2017-Feb-18 10:32N 37°56' E 023°38'0 0.0
2017-Feb-18 09:32N 37°56' E 023°38'0 0.0
2017-Feb-18 08:32N 37°56' E 023°38'0 0.0
2017-Feb-18 07:32N 37°56' E 023°38'0 0.0
2017-Feb-18 06:32N 37°56' E 023°38'0 0.0
2017-Feb-18 05:32N 37°56' E 023°38'0 0.0
2017-Feb-18 04:32N 37°56' E 023°38'0 0.1
2017-Feb-18 03:33N 37°56' E 023°38'1515.1
2017-Feb-18 02:34N 37°43' E 023°45'6 0.2
2017-Feb-16 20:28N 37°37' E 023°43'1719.1
2017-Feb-16 19:33N 37°54' E 023°37'3 2.9
2017-Feb-16 18:33N 37°56' E 023°38'0 0.0
2017-Feb-16 17:33N 37°56' E 023°38'0 0.0
2017-Feb-16 16:32N 37°56' E 023°38'0 0.0
2017-Feb-16 15:33N 37°56' E 023°38'0 0.0
2017-Feb-16 14:32N 37°56' E 023°38'0 0.0
2017-Feb-16 13:33N 37°56' E 023°38'0 0.0
2017-Feb-16 12:33N 37°56' E 023°38'0 0.0
2017-Feb-16 11:33N 37°56' E 023°38'0 0.0
2017-Feb-16 10:33N 37°56' E 023°38'0 0.0
2017-Feb-16 09:33N 37°56' E 023°38'0 0.0
2017-Feb-16 08:33N 37°56' E 023°38'0 0.0
2017-Feb-16 07:33N 37°56' E 023°38'0 0.0
2017-Feb-16 06:33N 37°56' E 023°38'0 0.0
2017-Feb-16 05:33N 37°56' E 023°38'0 0.0
2017-Feb-16 04:33N 37°56' E 023°38'0 0.2
2017-Feb-16 03:34N 37°56' E 023°37'1817.8
2017-Feb-16 02:34N 37°40' E 023°46'4 0.1
2017-Feb-14 20:27N 37°37' E 023°43'1719.3
2017-Feb-14 19:34N 37°53' E 023°36'3 3.1
2017-Feb-14 18:34N 37°56' E 023°38'0 0.0
2017-Feb-14 17:31N 37°56' E 023°38'0 0.0
2017-Feb-14 16:32N 37°56' E 023°38'0 0.0
2017-Feb-14 15:33N 37°56' E 023°38'0 0.0
2017-Feb-14 14:32N 37°56' E 023°38'0 0.0
2017-Feb-14 13:32N 37°56' E 023°38'  

Dump ship's entire track history